Time;durP1;ratioP1;P1;durP2;ratioP2;P2;SDS_P1;SDS_P2;PMS_P1;PMS_P2;Temp;Humidity;BMP_temperature;BMP_pressure;BME280_temperature;BME280_humidity;BME280_pressure;Samples;Min_cycle;Max_cycle;Signal;HPM_P1;HPM_P2
2022/12/13 00:01:18;;;;;;;2.63;1.60;;;;;;;-2.72;84.79;101101.72;5134247;28;20040;-69
2022/12/13 00:03:44;;;;;;;2.25;1.80;;;;;;;-3.01;84.92;101067.72;5121849;28;20031;-69
2022/12/13 00:06:10;;;;;;;4.10;1.48;;;;;;;-2.72;85.22;101107.00;5109486;28;20036;-68
2022/12/13 00:08:37;;;;;;;2.63;1.40;;;;;;;-2.88;85.40;101084.38;5119778;28;20030;-68
2022/12/13 00:11:05;;;;;;;4.32;2.13;;;;;;;-2.72;85.75;101109.63;5108209;28;20024;-69
2022/12/13 00:13:31;;;;;;;2.08;1.63;;;;;;;-2.76;85.63;101102.91;5115125;28;20047;-68
2022/12/13 00:15:58;;;;;;;2.30;1.83;;;;;;;-2.83;85.09;101097.22;5109164;28;20036;-69
2022/12/13 00:18:24;;;;;;;3.03;1.90;;;;;;;-2.70;85.13;101084.03;5105918;28;20024;-70
2022/12/13 00:20:50;;;;;;;2.88;1.65;;;;;;;-2.98;85.38;101078.06;5098161;28;20027;-69
2022/12/13 00:23:15;;;;;;;3.05;1.88;;;;;;;-2.88;85.90;101092.28;5103444;28;20036;-69
2022/12/13 00:25:41;;;;;;;2.88;1.67;;;;;;;-2.79;86.31;101090.78;5113925;28;20060;-69
2022/12/13 00:28:07;;;;;;;2.17;1.58;;;;;;;-2.84;85.67;101067.41;5110578;28;20028;-69
2022/12/13 00:30:35;;;;;;;3.55;2.00;;;;;;;-2.66;85.03;101067.06;5088396;28;20032;-69
2022/12/13 00:33:00;;;;;;;2.90;1.73;;;;;;;-2.44;84.98;101090.97;5117132;28;20082;-69
2022/12/13 00:35:26;;;;;;;3.10;1.75;;;;;;;-2.39;84.31;101088.81;5104549;28;20020;-69
2022/12/13 00:37:51;;;;;;;3.13;1.83;;;;;;;-2.27;83.75;101079.22;5111085;28;20044;-70
2022/12/13 00:40:17;;;;;;;2.53;1.70;;;;;;;-2.34;83.65;101079.78;5111699;28;20047;-69
2022/12/13 00:42:42;;;;;;;2.72;1.73;;;;;;;-2.49;84.15;101086.97;5104334;28;20035;-69
2022/12/13 00:45:08;;;;;;;4.68;1.70;;;;;;;-2.69;84.01;101078.66;5115958;28;20031;-70
2022/12/13 00:47:34;;;;;;;4.32;1.73;;;;;;;-2.49;84.50;101077.25;5105916;28;20510;-70
2022/12/13 00:50:00;;;;;;;2.53;1.90;;;;;;;-2.36;83.88;101070.16;5110327;28;20122;-69
2022/12/13 00:52:25;;;;;;;2.28;1.70;;;;;;;-2.32;83.71;101069.94;5129181;28;20066;-71
2022/12/13 00:54:51;;;;;;;1.88;1.40;;;;;;;-2.44;83.91;101067.25;5117512;28;20047;-69
2022/12/13 00:57:16;;;;;;;2.40;1.75;;;;;;;-2.56;84.35;101049.66;5098237;28;20062;-69
2022/12/13 00:59:42;;;;;;;2.72;1.90;;;;;;;-2.29;83.67;101069.72;5103261;28;20031;-69
2022/12/13 01:02:07;;;;;;;2.33;1.58;;;;;;;-2.39;83.92;101059.84;5108679;28;20563;-69
2022/12/13 01:04:33;;;;;;;2.67;1.67;;;;;;;-2.30;83.69;101062.78;5113357;28;20122;-70
2022/12/13 01:06:58;;;;;;;2.35;1.55;;;;;;;-2.49;83.44;101053.53;5085030;28;20165;-69
2022/12/13 01:09:32;;;;;;;2.03;1.60;;;;;;;-2.63;83.43;101012.38;5114378;28;20051;-69
2022/12/13 01:12:04;;;;;;;2.67;1.60;;;;;;;-2.45;83.04;101036.59;5108658;28;20414;-69
2022/12/13 01:14:30;;;;;;;3.08;1.48;;;;;;;-2.46;83.27;101040.16;5106904;28;20496;-70
2022/12/13 01:16:56;;;;;;;2.20;1.70;;;;;;;-2.37;83.01;101039.50;5115932;28;20035;-69
2022/12/13 01:19:22;;;;;;;2.63;1.77;;;;;;;-2.39;82.42;101038.75;5103169;28;20030;-70
2022/12/13 01:21:48;;;;;;;2.70;1.77;;;;;;;-2.42;82.52;101049.53;5110863;28;20115;-69
2022/12/13 01:24:14;;;;;;;2.50;1.52;;;;;;;-2.54;82.12;101034.59;5110511;28;20055;-69
2022/12/13 01:26:40;;;;;;;6.07;1.70;;;;;;;-2.47;82.40;101041.13;5103765;28;20484;-69
2022/12/13 01:29:05;;;;;;;6.90;1.83;;;;;;;-2.61;82.07;101038.63;5115399;28;20104;-70
2022/12/13 01:31:32;;;;;;;2.60;1.85;;;;;;;-2.67;82.38;101049.59;5086020;28;20047;-69
2022/12/13 01:33:57;;;;;;;1.80;1.33;;;;;;;-2.73;82.91;101048.22;5110857;28;20483;-69
2022/12/13 01:36:23;;;;;;;3.97;1.80;;;;;;;-2.73;82.83;101042.13;5109759;28;20042;-69
2022/12/13 01:38:50;;;;;;;2.88;1.70;;;;;;;-2.80;83.27;101048.75;5102215;28;20036;-69
2022/12/13 01:41:18;;;;;;;2.95;1.70;;;;;;;-2.82;82.99;101048.84;5097537;28;20031;-69
2022/12/13 01:43:46;;;;;;;3.38;1.95;;;;;;;-2.88;83.39;101046.66;5105701;28;20549;-69
2022/12/13 01:46:14;;;;;;;2.50;1.58;;;;;;;-2.87;83.20;101048.34;5106893;28;20123;-69
2022/12/13 01:48:46;;;;;;;3.42;1.92;;;;;;;-2.84;82.80;101038.44;5113635;28;20047;-69
2022/12/13 01:51:14;;;;;;;3.42;1.70;;;;;;;-2.86;82.88;101042.97;5102147;28;20087;-69
2022/12/13 01:53:42;;;;;;;3.80;1.60;;;;;;;-2.96;83.35;101041.91;5113574;28;20436;-69
2022/12/13 01:56:16;;;;;;;2.17;1.40;;;;;;;-2.87;83.29;101041.28;5107750;28;20031;-69
2022/12/13 01:58:43;;;;;;;2.45;1.42;;;;;;;-3.09;83.32;100997.16;5119857;28;20521;-69
2022/12/13 02:01:09;;;;;;;3.17;2.00;;;;;;;-2.92;83.57;101029.38;5099721;28;20529;-69
2022/12/13 02:03:35;;;;;;;4.25;1.95;;;;;;;-3.05;83.72;101012.75;5111585;28;20028;-70
2022/12/13 02:06:06;;;;;;;3.10;1.85;;;;;;;-2.95;83.91;101027.78;5105932;28;20051;-70
2022/12/13 02:08:33;;;;;;;2.72;1.80;;;;;;;-2.91;83.87;101033.72;5103739;28;20034;-69
2022/12/13 02:10:59;;;;;;;3.17;1.75;;;;;;;-2.97;83.69;101024.44;5096593;28;20055;-69
2022/12/13 02:13:25;;;;;;;3.00;1.90;;;;;;;-3.03;83.89;101024.03;5101931;28;20087;-69
2022/12/13 02:16:01;;;;;;;2.90;1.80;;;;;;;-2.99;83.91;101013.16;5111709;28;20052;-69
2022/12/13 02:18:41;;;;;;;3.85;1.95;;;;;;;-2.88;83.90;101021.19;5110599;28;20449;-69
2022/12/13 02:21:42;;;;;;;3.17;1.77;;;;;;;-2.84;83.41;101025.28;5100502;28;20034;-69
2022/12/13 02:24:29;;;;;;;2.85;1.70;;;;;;;-2.93;83.35;101018.00;5114422;27;20479;-69
2022/12/13 02:27:16;;;;;;;2.75;1.65;;;;;;;-2.94;83.44;101023.41;5115613;28;20035;-69
2022/12/13 02:30:21;;;;;;;1.98;1.70;;;;;;;-3.08;83.17;101016.44;5091756;28;20088;-69
2022/12/13 02:33:05;;;;;;;3.07;1.60;;;;;;;-3.02;83.33;101013.38;5071843;28;20040;-69
2022/12/13 02:36:07;;;;;;;2.80;1.73;;;;;;;-3.11;83.05;101011.41;5086457;28;20016;-70
2022/12/13 02:38:55;;;;;;;2.97;1.65;;;;;;;-3.08;83.18;101013.78;5104167;28;20387;-69
2022/12/13 02:41:49;;;;;;;2.35;1.60;;;;;;;-3.37;82.89;100976.34;5113033;28;20394;-71
2022/12/13 02:44:20;;;;;;;4.00;1.80;;;;;;;-3.22;82.77;101020.03;5108752;28;20059;-69
2022/12/13 02:47:00;;;;;;;2.60;1.65;;;;;;;-3.28;82.62;101009.06;5102067;28;20039;-69
2022/12/13 02:49:31;;;;;;;1.67;1.25;;;;;;;-3.44;82.97;101014.56;5085733;28;20393;-69
2022/12/13 02:51:59;;;;;;;3.65;1.80;;;;;;;-3.43;83.33;101009.19;5108742;28;20020;-69
2022/12/13 02:54:24;;;;;;;2.88;1.50;;;;;;;-3.40;83.19;101003.72;5110182;28;20063;-70
2022/12/13 02:56:55;;;;;;;3.25;1.60;;;;;;;-3.38;83.17;101001.81;5101375;28;20031;-69
2022/12/13 02:59:26;;;;;;;2.72;1.50;;;;;;;-3.36;83.15;101002.53;5096975;28;20042;-70
2022/12/13 03:02:11;;;;;;;3.60;1.65;;;;;;;-3.51;82.98;100995.69;5103983;28;20040;-69
2022/12/13 03:06:28;;;;;;;2.53;1.60;;;;;;;-3.55;83.09;101002.09;5105044;28;20035;-69
2022/12/13 03:07:38;;;;;;;2.65;1.45;;;;;;;-3.58;82.91;100997.06;5086088;28;20091;-69
2022/12/13 03:10:20;;;;;;;4.40;1.55;;;;;;;-3.70;82.57;100995.25;5108968;28;20028;-71
2022/12/13 03:15:57;;;;;;;1.90;1.50;;;;;;;-3.80;82.51;100995.88;5091160;28;20045;-69
2022/12/13 03:18:26;;;;;;;2.47;1.55;;;;;;;-3.88;82.37;100998.16;5104933;28;20032;-69
2022/12/13 03:21:12;;;;;;;2.33;1.60;;;;;;;-3.92;82.33;100999.31;5110971;28;20031;-70
2022/12/13 03:23:38;;;;;;;2.60;1.42;;;;;;;-3.99;82.16;100990.16;5102589;28;20039;-70
2022/12/13 03:26:10;;;;;;;4.32;1.60;;;;;;;-3.97;82.20;100987.41;5106724;28;20064;-69
2022/12/13 03:28:37;;;;;;;3.28;1.75;;;;;;;-4.01;82.12;100992.00;5111594;28;20031;-69
2022/12/13 03:31:03;;;;;;;2.67;1.67;;;;;;;-4.04;82.17;100989.59;5100109;28;20430;-69
2022/12/13 03:33:29;;;;;;;2.38;1.45;;;;;;;-4.29;82.28;100954.41;5115207;28;20031;-69
2022/12/13 03:35:55;;;;;;;2.75;1.40;;;;;;;-4.26;82.02;100956.84;5106879;28;20028;-69
2022/12/13 03:38:21;;;;;;;3.47;1.63;;;;;;;-4.08;82.61;100978.44;5106529;28;20403;-69
2022/12/13 03:40:47;;;;;;;2.78;1.52;;;;;;;-4.11;82.84;100990.94;5096224;28;20028;-69
2022/12/13 03:43:13;;;;;;;2.80;1.52;;;;;;;-4.06;82.74;100978.34;5100883;28;20036;-71
2022/12/13 03:45:38;;;;;;;4.22;1.40;;;;;;;-4.14;83.45;100978.00;5094195;28;20046;-70
2022/12/13 03:48:04;;;;;;;2.33;1.50;;;;;;;-4.17;84.15;100972.94;5106351;28;20039;-70
2022/12/13 03:50:29;;;;;;;2.78;1.50;;;;;;;-4.09;84.15;100975.94;5104337;28;20036;-69
2022/12/13 03:53:02;;;;;;;2.33;1.48;;;;;;;-4.16;84.41;100979.91;5113441;28;20390;-69
2022/12/13 03:55:28;;;;;;;2.08;1.30;;;;;;;-4.06;83.73;100973.09;5090177;28;20030;-69
2022/12/13 03:57:55;;;;;;;2.58;1.60;;;;;;;-4.12;84.16;100970.88;5114016;28;20030;-70
2022/12/13 04:00:21;;;;;;;2.20;1.55;;;;;;;-4.08;83.58;100965.28;5095131;28;20071;-70
2022/12/13 04:02:46;;;;;;;2.95;1.52;;;;;;;-4.07;83.41;100976.69;5088912;28;20048;-70
2022/12/13 04:05:14;;;;;;;3.28;1.52;;;;;;;-4.29;83.55;100930.78;5117863;28;20436;-70
2022/12/13 04:07:39;;;;;;;2.03;1.30;;;;;;;-4.06;82.83;100955.53;5106463;28;20050;-69
2022/12/13 04:10:05;;;;;;;1.85;1.45;;;;;;;-4.03;82.93;100968.47;5112548;28;20424;-69
2022/12/13 04:15:15;;;;;;;2.65;1.42;;;;;;;-4.28;83.01;100963.97;5105436;28;20042;-70
2022/12/13 04:17:40;;;;;;;2.65;1.20;;;;;;;-4.30;83.05;100965.88;5115177;28;20107;-70
2022/12/13 04:20:06;;;;;;;2.08;1.40;;;;;;;-4.39;83.54;100961.22;5111309;28;20026;-71
2022/12/13 04:22:32;;;;;;;2.78;1.67;;;;;;;-4.52;83.86;100948.03;5108227;28;20035;-70
2022/12/13 04:24:57;;;;;;;2.95;1.58;;;;;;;-4.61;83.58;100926.75;5117328;28;20040;-70
2022/12/13 04:27:22;;;;;;;3.03;1.80;;;;;;;-4.56;83.96;100957.06;5103170;28;20039;-70
2022/12/13 04:29:48;;;;;;;2.05;1.33;;;;;;;-4.55;83.55;100952.63;5096997;28;20039;-70
2022/12/13 04:32:13;;;;;;;2.65;1.60;;;;;;;-4.84;82.98;100897.56;5111630;28;20049;-69
2022/12/13 04:34:39;;;;;;;2.20;1.50;;;;;;;-4.50;82.71;100940.06;5108070;28;20032;-69
2022/12/13 04:37:04;;;;;;;2.10;1.35;;;;;;;-4.38;82.13;100941.03;5118181;28;20039;-71
2022/12/13 04:39:30;;;;;;;2.40;1.50;;;;;;;-4.52;82.15;100934.06;5104277;28;20049;-69
2022/12/13 04:41:55;;;;;;;3.00;1.45;;;;;;;-4.66;82.15;100927.06;5114751;28;20023;-69
2022/12/13 04:44:21;;;;;;;3.78;1.70;;;;;;;-4.90;82.17;100895.38;5112017;28;20074;-69
2022/12/13 04:46:46;;;;;;;3.65;1.60;;;;;;;-4.69;81.70;100927.28;5108818;28;20107;-69
2022/12/13 04:49:11;;;;;;;3.28;2.03;;;;;;;-4.70;81.61;100919.47;5119394;28;20030;-69
2022/12/13 04:51:37;;;;;;;2.55;1.60;;;;;;;-4.83;81.34;100915.03;5107927;28;20057;-70
2022/12/13 04:54:02;;;;;;;2.38;1.50;;;;;;;-4.74;81.24;100934.56;5113701;28;20032;-69
2022/12/13 04:56:28;;;;;;;3.25;1.73;;;;;;;-4.90;81.26;100912.88;5112787;28;20027;-70
2022/12/13 04:58:53;;;;;;;2.17;1.33;;;;;;;-4.80;80.99;100938.47;5106823;28;20092;-69
2022/12/13 05:01:24;;;;;;;2.90;1.50;;;;;;;-4.84;81.10;100931.69;5117728;28;20486;-65
2022/12/13 05:03:49;;;;;;;3.60;1.80;;;;;;;-4.89;81.22;100922.44;5090928;28;20093;-70
2022/12/13 05:06:15;;;;;;;2.92;1.75;;;;;;;-4.92;81.80;100910.34;5111368;28;20043;-70
2022/12/13 05:08:42;;;;;;;2.88;1.55;;;;;;;-4.92;81.87;100914.78;5114568;28;20061;-69
2022/12/13 05:11:10;;;;;;;3.08;1.60;;;;;;;-5.07;82.29;100919.19;5101871;28;20078;-69
2022/12/13 05:13:38;;;;;;;2.42;1.50;;;;;;;-5.09;82.23;100907.97;5114925;28;20375;-68
2022/12/13 05:16:06;;;;;;;1.83;1.20;;;;;;;-5.08;82.18;100913.09;5108504;28;20047;-67
2022/12/13 05:18:32;;;;;;;2.58;1.48;;;;;;;-5.00;82.74;100904.72;5107353;28;20034;-67
2022/12/13 05:21:06;;;;;;;2.58;1.50;;;;;;;-5.14;83.26;100910.00;5116646;28;20096;-68
2022/12/13 05:23:33;;;;;;;4.18;2.13;;;;;;;-5.11;82.96;100910.66;5103526;27;20036;-70
2022/12/13 05:25:58;;;;;;;2.28;1.58;;;;;;;-4.94;82.76;100908.75;5111153;28;20027;-67
2022/12/13 05:28:27;;;;;;;2.67;1.42;;;;;;;-5.04;82.63;100903.25;5110158;28;20062;-67
2022/12/13 05:30:53;;;;;;;3.42;1.98;;;;;;;-5.00;82.10;100912.59;5104191;28;20044;-67
2022/12/13 05:33:19;;;;;;;2.28;1.30;;;;;;;-5.07;82.61;100914.78;5116916;28;20066;-67
2022/12/13 05:35:45;;;;;;;2.95;1.52;;;;;;;-5.01;82.90;100910.94;5105039;28;20051;-67
2022/12/13 05:38:10;;;;;;;3.13;1.48;;;;;;;-4.89;82.48;100909.31;5110868;28;20095;-67
2022/12/13 05:40:36;;;;;;;1.98;1.48;;;;;;;-5.05;82.82;100905.03;5111714;28;20051;-67
2022/12/13 05:43:01;;;;;;;3.03;1.33;;;;;;;-5.15;82.71;100898.69;5102234;28;20044;-68
2022/12/13 05:45:27;;;;;;;3.08;2.00;;;;;;;-5.30;83.92;100907.50;5084564;28;20023;-69
2022/12/13 05:47:52;;;;;;;2.35;1.30;;;;;;;-5.02;82.92;100909.25;5110232;28;20035;-70
2022/12/13 05:50:18;;;;;;;1.75;1.30;;;;;;;-5.23;83.14;100907.03;5109402;28;20035;-68
2022/12/13 05:52:44;;;;;;;2.55;1.60;;;;;;;-5.20;83.39;100904.22;5104575;28;20113;-68
2022/12/13 05:55:10;;;;;;;2.75;1.50;;;;;;;-5.04;83.21;100904.09;5115729;28;20027;-68
2022/12/13 05:57:36;;;;;;;2.92;1.67;;;;;;;-5.27;83.50;100902.06;5103933;28;20032;-78
2022/12/13 06:00:05;;;;;;;2.88;1.33;;;;;;;-5.02;83.24;100901.38;5114972;28;20028;-70
2022/12/13 06:02:30;;;;;;;2.78;1.58;;;;;;;-5.16;82.92;100896.16;5115428;28;20048;-69
2022/12/13 06:04:56;;;;;;;1.85;1.33;;;;;;;-5.29;82.99;100865.44;5101266;28;20161;-69
2022/12/13 06:07:21;;;;;;;2.03;1.58;;;;;;;-5.08;82.32;100891.28;5093807;28;20554;-69
2022/12/13 06:09:46;;;;;;;2.67;1.52;;;;;;;-5.20;83.01;100890.25;5086466;28;20031;-69
2022/12/13 06:12:12;;;;;;;2.55;1.60;;;;;;;-5.17;83.11;100884.81;5110209;28;20051;-68
2022/12/13 06:14:37;;;;;;;2.75;1.52;;;;;;;-5.34;82.67;100854.38;5114576;28;20543;-69
2022/12/13 06:17:03;;;;;;;2.03;1.50;;;;;;;-5.17;82.69;100890.06;5085623;28;20040;-68
2022/12/13 06:19:29;;;;;;;4.47;1.67;;;;;;;-5.09;82.56;100879.94;5115658;28;20123;-70
2022/12/13 06:21:54;;;;;;;4.53;1.60;;;;;;;-5.07;82.51;100882.44;5105437;28;20075;-68
2022/12/13 06:24:22;;;;;;;3.40;1.63;;;;;;;-5.37;82.43;100849.34;5107770;28;20111;-70
2022/12/13 06:26:49;;;;;;;2.65;1.60;;;;;;;-5.29;82.86;100869.84;5111688;28;20122;-68
2022/12/13 06:29:16;;;;;;;2.42;1.50;;;;;;;-5.30;82.19;100845.38;5101352;28;20694;-69
2022/12/13 06:31:41;;;;;;;5.47;1.80;;;;;;;-5.44;82.27;100835.75;5113925;28;20384;-69
2022/12/13 06:34:08;;;;;;;2.38;1.75;;;;;;;-5.02;81.74;100878.59;5109717;28;20035;-69
2022/12/13 06:36:34;;;;;;;2.20;1.25;;;;;;;-4.95;81.32;100879.06;5106372;28;20057;-71
2022/12/13 06:39:03;;;;;;;3.78;1.45;;;;;;;-5.06;81.46;100882.38;5132036;27;20115;-69
2022/12/13 06:41:29;;;;;;;2.83;1.80;;;;;;;-5.29;81.65;100833.13;5087350;28;20016;-70
2022/12/13 06:43:54;;;;;;;2.92;1.65;;;;;;;-5.06;81.42;100869.25;5112702;28;20483;-70
2022/12/13 06:46:20;;;;;;;4.70;1.50;;;;;;;-4.99;81.41;100862.66;5093171;28;20122;-71
2022/12/13 06:48:45;;;;;;;3.15;1.50;;;;;;;-5.07;81.15;100864.91;5106834;28;20028;-71
2022/12/13 06:51:11;;;;;;;2.60;1.60;;;;;;;-5.17;81.17;100862.97;5115686;28;20100;-70
2022/12/13 06:53:39;;;;;;;2.72;1.67;;;;;;;-5.23;81.02;100870.31;5103820;28;20051;-70
2022/12/13 06:56:09;;;;;;;3.13;1.60;;;;;;;-5.24;81.18;100866.00;5111975;28;20024;-68
2022/12/13 06:58:35;;;;;;;2.60;1.48;;;;;;;-5.52;80.85;100831.97;5108367;28;20039;-69
2022/12/13 07:01:05;;;;;;;3.92;1.70;;;;;;;-5.36;81.07;100866.78;5102890;28;20063;-70
2022/12/13 07:03:31;;;;;;;4.68;2.08;;;;;;;-5.35;80.94;100863.22;5084604;28;20093;-69
2022/12/13 07:06:04;;;;;;;4.75;1.67;;;;;;;-5.32;80.67;100864.81;5109034;28;20397;-69
2022/12/13 07:08:30;;;;;;;3.40;1.58;;;;;;;-5.33;80.47;100868.34;5109444;28;20053;-70
2022/12/13 07:10:57;;;;;;;9.75;4.32;;;;;;;-5.37;80.62;100866.84;5101870;28;20055;-69
2022/12/13 07:13:23;;;;;;;20.10;8.32;;;;;;;-5.36;80.38;100858.91;5114325;28;20031;-70
2022/12/13 07:15:49;;;;;;;18.73;8.30;;;;;;;-5.37;80.31;100857.19;5103625;28;20027;-69
2022/12/13 07:18:15;;;;;;;14.98;6.45;;;;;;;-5.41;80.04;100858.34;5109003;28;20181;-69
2022/12/13 07:20:41;;;;;;;22.05;11.43;;;;;;;-5.45;80.21;100862.94;5112335;28;20482;-69
2022/12/13 07:23:07;;;;;;;19.40;8.70;;;;;;;-5.45;80.28;100870.81;5101072;28;20737;-69
2022/12/13 07:25:33;;;;;;;15.73;7.85;;;;;;;-5.54;79.92;100868.75;5115569;28;20035;-70
2022/12/13 07:28:06;;;;;;;19.15;10.23;;;;;;;-5.59;79.90;100872.59;5108817;28;20027;-69
2022/12/13 07:30:35;;;;;;;11.60;5.18;;;;;;;-5.88;80.15;100835.06;5111112;28;20032;-69
2022/12/13 07:33:02;;;;;;;7.15;3.00;;;;;;;-5.79;79.83;100872.03;5118957;28;20031;-69
2022/12/13 07:35:28;;;;;;;6.05;2.70;;;;;;;-5.82;79.88;100872.22;5106008;28;20416;-69
2022/12/13 07:37:54;;;;;;;5.35;2.38;;;;;;;-5.84;79.95;100862.75;5116671;28;20024;-69
2022/12/13 07:40:19;;;;;;;2.88;1.92;;;;;;;-5.75;80.07;100860.41;5113560;28;20529;-69
2022/12/13 07:42:49;;;;;;;2.72;1.77;;;;;;;-5.65;80.06;100871.19;5108252;28;20513;-69
2022/12/13 07:45:15;;;;;;;7.70;4.50;;;;;;;-5.77;79.74;100875.38;5100404;28;20040;-69
2022/12/13 07:47:40;;;;;;;7.25;3.53;;;;;;;-5.83;79.54;100874.91;5106779;28;20072;-70
2022/12/13 07:50:06;;;;;;;4.20;2.80;;;;;;;-5.85;79.64;100874.19;5114712;28;20102;-76
2022/12/13 07:52:31;;;;;;;3.00;1.77;;;;;;;-5.89;79.71;100870.91;5113800;28;20073;-70
2022/12/13 07:54:56;;;;;;;4.53;3.08;;;;;;;-5.81;79.58;100884.38;5087910;28;20391;-72
2022/12/13 07:57:22;;;;;;;8.90;5.95;;;;;;;-5.89;79.45;100878.75;5113314;28;20503;-70
2022/12/13 07:59:47;;;;;;;9.38;4.18;;;;;;;-6.00;79.26;100883.81;5103808;28;20054;-69
2022/12/13 08:02:13;;;;;;;11.05;4.45;;;;;;;-6.21;79.39;100850.09;5111575;28;20052;-70
2022/12/13 08:04:38;;;;;;;5.75;3.67;;;;;;;-5.99;79.36;100880.28;5095853;28;20031;-69
2022/12/13 08:07:07;;;;;;;4.88;2.88;;;;;;;-6.05;79.71;100885.88;5103286;28;20042;-70
2022/12/13 08:09:35;;;;;;;3.47;2.30;;;;;;;-6.05;79.54;100878.00;5088867;28;20498;-69
2022/12/13 08:12:00;;;;;;;5.40;3.13;;;;;;;-6.11;79.41;100870.53;5112114;28;20046;-69
2022/12/13 08:14:26;;;;;;;17.40;9.98;;;;;;;-6.04;79.49;100882.31;5112066;28;20055;-69
2022/12/13 08:16:52;;;;;;;25.27;15.20;;;;;;;-6.03;79.56;100878.75;5106287;28;20110;-70
2022/12/13 08:19:18;;;;;;;31.80;14.65;;;;;;;-5.99;79.44;100877.66;5117385;28;20551;-69
2022/12/13 08:21:44;;;;;;;37.13;20.70;;;;;;;-6.05;79.38;100878.00;5105562;28;20031;-69
2022/12/13 08:24:10;;;;;;;30.02;16.85;;;;;;;-6.03;79.24;100879.59;5110792;28;20092;-69
2022/12/13 08:26:35;;;;;;;24.67;13.40;;;;;;;-6.09;79.64;100873.88;5112631;28;20034;-70
2022/12/13 08:29:01;;;;;;;14.35;8.30;;;;;;;-6.26;79.21;100831.19;5103184;28;20444;-69
2022/12/13 08:31:27;;;;;;;17.52;9.98;;;;;;;-6.07;79.56;100870.22;5115654;28;20089;-70
2022/12/13 08:33:52;;;;;;;6.75;3.80;;;;;;;-6.03;78.98;100868.28;5105521;28;20040;-70
2022/12/13 08:36:17;;;;;;;6.63;2.67;;;;;;;-6.02;79.12;100869.97;5109436;28;20046;-69
2022/12/13 08:38:44;;;;;;;10.50;5.82;;;;;;;-6.02;79.25;100873.44;5113441;28;20031;-69
2022/12/13 08:41:10;;;;;;;13.93;7.50;;;;;;;-6.09;78.91;100866.88;5102365;28;20016;-69
2022/12/13 08:43:36;;;;;;;12.60;5.20;;;;;;;-6.12;78.66;100872.31;5116276;28;20501;-70
2022/12/13 08:46:02;;;;;;;6.45;3.72;;;;;;;-6.15;78.71;100860.22;5107586;28;20052;-70
2022/12/13 08:48:28;;;;;;;14.23;6.40;;;;;;;-6.08;78.82;100860.69;5107677;28;20119;-70
2022/12/13 08:50:53;;;;;;;7.03;2.80;;;;;;;-6.06;78.57;100861.47;5114386;28;20038;-70
2022/12/13 08:53:19;;;;;;;10.40;3.33;;;;;;;-6.05;78.64;100865.75;5103938;28;20028;-69
2022/12/13 08:55:45;;;;;;;9.32;3.50;;;;;;;-6.28;78.52;100833.06;5115311;28;20119;-69
2022/12/13 08:58:11;;;;;;;12.52;4.30;;;;;;;-6.27;78.33;100824.28;5107979;28;20085;-69
2022/12/13 09:00:37;;;;;;;9.30;6.03;;;;;;;-6.17;78.22;100846.34;5107668;28;20036;-69
2022/12/13 09:03:04;;;;;;;15.23;5.57;;;;;;;-6.29;78.10;100833.16;5114908;28;20100;-70
2022/12/13 09:05:30;;;;;;;32.03;12.55;;;;;;;-6.13;78.46;100867.97;5101734;28;20170;-69
2022/12/13 09:07:57;;;;;;;23.63;7.97;;;;;;;-6.12;78.29;100868.81;5112966;28;20059;-69
2022/12/13 09:10:23;;;;;;;9.43;4.28;;;;;;;-6.15;78.48;100865.47;5109108;28;20035;-69
2022/12/13 09:12:49;;;;;;;9.88;4.82;;;;;;;-6.32;78.16;100831.56;5104168;28;20047;-69
2022/12/13 09:15:14;;;;;;;9.02;4.78;;;;;;;-6.01;78.48;100874.28;5098169;28;20039;-69
2022/12/13 09:17:40;;;;;;;12.65;5.15;;;;;;;-5.99;78.25;100867.19;5086856;28;20081;-69
2022/12/13 09:20:08;;;;;;;41.95;17.63;;;;;;;-5.91;78.49;100878.84;5110915;28;20053;-68
2022/12/13 09:22:34;;;;;;;62.80;25.40;;;;;;;-5.87;77.90;100874.25;5110693;28;20032;-69
2022/12/13 09:25:01;;;;;;;51.13;21.13;;;;;;;-5.80;78.11;100877.34;5102710;28;20036;-69
2022/12/13 09:27:29;;;;;;;36.70;14.80;;;;;;;-5.79;78.11;100868.56;5115049;28;20123;-68
2022/12/13 09:30:11;;;;;;;23.77;9.50;;;;;;;-5.76;78.41;100860.50;5108714;28;20035;-69
2022/12/13 09:32:38;;;;;;;15.00;8.77;;;;;;;-5.78;78.17;100855.34;5105706;28;20042;-69
2022/12/13 09:35:04;;;;;;;17.25;10.13;;;;;;;-5.59;78.18;100862.94;5115738;28;20468;-69
2022/12/13 09:37:30;;;;;;;16.27;7.63;;;;;;;-5.73;78.24;100828.84;5084636;28;20148;-70
2022/12/13 09:39:56;;;;;;;13.55;5.63;;;;;;;-5.44;78.12;100866.41;5112652;28;20027;-69
2022/12/13 09:42:26;;;;;;;13.43;6.57;;;;;;;-5.42;78.19;100864.53;5109856;28;20024;-70
2022/12/13 09:45:02;;;;;;;8.70;5.60;;;;;;;-5.41;78.07;100862.75;5103151;28;20023;-69
2022/12/13 09:47:38;;;;;;;14.40;7.20;;;;;;;-5.44;77.59;100841.00;5114235;28;20379;-80
2022/12/13 09:50:08;;;;;;;22.48;15.00;;;;;;;-5.50;77.79;100851.88;5108804;28;20062;-78
2022/12/13 09:52:39;;;;;;;17.55;9.85;;;;;;;-5.60;77.72;100826.31;5106017;28;20123;-71
2022/12/13 09:55:30;;;;;;;10.70;6.22;;;;;;;-5.39;77.85;100845.16;5115378;28;20027;-70
2022/12/13 09:57:57;;;;;;;7.65;4.30;;;;;;;-5.32;78.27;100844.66;5087556;28;20099;-69
2022/12/13 10:00:42;;;;;;;8.82;4.43;;;;;;;-5.29;78.15;100838.38;5104571;28;20085;-70
2022/12/13 10:03:14;;;;;;;6.43;3.60;;;;;;;-5.26;78.29;100819.84;5058792;28;20049;-69
2022/12/13 10:05:44;;;;;;;29.17;17.55;;;;;;;-5.05;78.24;100822.84;5075922;28;20043;-71
2022/12/13 10:08:26;;;;;;;10.95;6.93;;;;;;;-4.97;78.21;100825.81;5059102;28;20461;-70
2022/12/13 10:10:52;;;;;;;6.97;4.60;;;;;;;-4.91;77.82;100814.94;5055924;28;20036;-70
2022/12/13 10:13:21;;;;;;;5.53;3.28;;;;;;;-4.85;78.01;100814.53;5073975;28;20534;-69
2022/12/13 10:16:01;;;;;;;5.88;3.45;;;;;;;-4.76;78.04;100808.69;5076198;28;20048;-69
2022/12/13 10:18:35;;;;;;;5.72;3.13;;;;;;;-4.69;77.72;100801.25;5076504;28;20428;-69
2022/12/13 10:21:16;;;;;;;5.53;3.15;;;;;;;-4.62;77.62;100807.78;5075788;28;20178;-70
2022/12/13 10:23:42;;;;;;;7.53;3.78;;;;;;;-4.56;77.68;100806.53;5060764;28;20044;-69
2022/12/13 10:26:10;;;;;;;6.55;4.30;;;;;;;-4.49;77.65;100805.19;5041906;28;20029;-70
2022/12/13 10:28:35;;;;;;;9.98;3.83;;;;;;;-4.45;77.49;100798.78;5059029;28;20056;-69
2022/12/13 10:31:01;;;;;;;5.05;3.17;;;;;;;-4.57;77.47;100765.44;5058996;28;20047;-69
2022/12/13 10:33:36;;;;;;;6.05;2.78;;;;;;;-4.54;77.62;100758.19;5083561;28;20043;-69
2022/12/13 10:36:07;;;;;;;5.32;2.90;;;;;;;-4.23;77.37;100792.91;5109818;28;20429;-70
2022/12/13 10:38:44;;;;;;;6.25;2.50;;;;;;;-4.19;77.43;100783.88;5109096;28;20027;-70
2022/12/13 10:41:46;;;;;;;7.82;3.22;;;;;;;-4.12;77.35;100777.25;5099991;28;20395;-69
2022/12/13 10:44:11;;;;;;;14.15;7.20;;;;;;;-4.11;77.50;100784.19;5029549;28;20110;-70
2022/12/13 10:46:46;;;;;;;14.90;8.35;;;;;;;-4.10;77.14;100777.16;5097750;28;20545;-69
2022/12/13 10:49:19;;;;;;;22.52;9.52;;;;;;;-4.05;76.98;100775.03;5101175;28;20027;-70
2022/12/13 10:51:46;;;;;;;14.73;7.82;;;;;;;-4.00;77.15;100772.13;5112917;28;20024;-69
2022/12/13 10:54:33;;;;;;;15.50;6.93;;;;;;;-3.96;77.02;100769.16;5105161;28;20513;-70
2022/12/13 10:56:59;;;;;;;5.82;3.45;;;;;;;-4.03;76.88;100746.88;5102276;28;20035;-69
2022/12/13 10:59:33;;;;;;;4.97;2.70;;;;;;;-3.86;77.31;100767.56;5112499;28;20031;-70
2022/12/13 11:02:02;;;;;;;;;;;;;;;-3.79;77.09;100757.47;5103384;28;20413;-69
2022/12/13 11:04:30;;;;;;;9.93;5.68;;;;;;;-3.76;77.16;100764.31;5106204;28;19918;-69
2022/12/13 11:06:58;;;;;;;11.90;7.22;;;;;;;-3.76;77.30;100761.66;5112517;28;20031;-69
2022/12/13 11:09:28;;;;;;;9.00;5.78;;;;;;;-3.73;76.96;100766.72;5100746;28;20399;-70
2022/12/13 11:11:57;;;;;;;8.48;5.40;;;;;;;-3.72;77.06;100760.50;5110083;28;20032;-69
2022/12/13 11:14:27;;;;;;;11.70;5.65;;;;;;;-3.76;77.37;100753.78;5108394;28;20038;-69
2022/12/13 11:17:19;;;;;;;10.05;5.75;;;;;;;-3.73;76.96;100754.41;5102499;28;20032;-69
2022/12/13 11:19:47;;;;;;;8.35;5.38;;;;;;;-3.73;77.12;100757.03;5083056;28;20122;-69
2022/12/13 11:22:30;;;;;;;7.75;4.43;;;;;;;-3.76;77.41;100756.41;5109033;28;20034;-69
2022/12/13 11:25:19;;;;;;;23.23;12.85;;;;;;;-3.90;77.81;100749.50;5112881;28;20035;-69
2022/12/13 11:28:04;;;;;;;13.45;6.55;;;;;;;-3.91;78.30;100746.00;5081417;28;20031;-69
2022/12/13 11:30:29;;;;;;;6.80;4.28;;;;;;;-3.74;78.03;100741.34;5105218;28;20047;-69
2022/12/13 11:33:12;;;;;;;7.53;4.82;;;;;;;-3.62;78.11;100740.47;5112487;28;20028;-69
2022/12/13 11:35:52;;;;;;;6.97;4.10;;;;;;;-3.58;78.10;100749.81;5086003;28;20398;-69
2022/12/13 11:38:34;;;;;;;10.60;6.43;;;;;;;-3.55;77.91;100752.25;5106562;28;20039;-69